East Hanover, NJ

9:39 AM EST on December 05, 2016 (GMT -0500)
East Hanover (Real time) | | Change Station

Elev 232 ft 40.83 °N, 74.37 °W | Updated 8 seconds ago

Overcast
Overcast
33.9 °F
Feels Like 34 °F
N
0.0
Wind Variable Wind from North
Gusts 1.0 mph

Today
High -- | Low -- °F
--% Chance of Precip.
Yesterday
High -- | Low -- °F
Precip. -- in
Pressure 30.00 in
Visibility 2.5 miles
Clouds Overcast 700 ft
Windchill 34 °F
Dew Point 32 °F
Humidity 92%
Rainfall in
Snow Depth Not available.
7:06 AM 4:29 PM
Waxing Crescent, 32% visible
METAR KMMU 051346Z COR 00000KT 2 1/2SM BR OVC007 01/01 A3000
Pressure 30.00 in
Visibility 2.5 miles
Clouds Overcast 700 ft
Windchill 34 °F
Dew Point 32 °F
Humidity 92%
Rainfall in
Snow Depth Not available.
7:06 AM 4:29 PM
Waxing Crescent, 32% visible
METAR KMMU 051346Z COR 00000KT 2 1/2SM BR OVC007 01/01 A3000

10-Day Weather Forecast

Almanac

Astronomy

Dec. 05, 2016 Rise Set
Actual Time
Civil Twilight
Nautical Twilight
Astronomical Twilight
Moon
Length of Visible Light
Length of Day
Tomorrow will be .
, % of the Moon is Illuminated

Today's Extremes

State Highs State Lows

Community

WunderPhotos

Upload Photos

1,955,782 photos uploaded!

WunderBlog® & News

Nearby

Air Quality

  Air Quality AQ Index Pollutant
Not available.

Snow Depth

Station Depth Elevation

Earthquake Activity

City Distance Mag. Time & Date
Minimum magnitude displayed is 2.5.

Coastal Water Temperatures

Place Temperature

Stations

Nearby Weather Stations

Station Location Temp. Windchill Dew Point Humidity Wind Precip. Elev Updated Type
                   

Watches & Warnings

There are currently no watches in effect.